sensor_id;sensor_type;location;lat;lon;timestamp;pressure;altitude;pressure_sealevel;temperature;humidity
51603;BME280;37954;51.980;5.850;2023-08-12T00:01:57;101459.13;;;23.20;80.33
51603;BME280;37954;51.980;5.850;2023-08-12T00:06:09;101448.78;;;23.12;80.43
51603;BME280;37954;51.980;5.850;2023-08-12T00:10:20;101448.72;;;23.17;80.71
51603;BME280;37954;51.980;5.850;2023-08-12T00:14:32;101436.75;;;23.08;81.11
51603;BME280;37954;51.980;5.850;2023-08-12T00:18:44;101443.63;;;23.05;81.06
51603;BME280;37954;51.980;5.850;2023-08-12T00:22:56;101445.56;;;23.05;81.22
51603;BME280;37954;51.980;5.850;2023-08-12T00:27:07;101443.63;;;23.05;81.46
51603;BME280;37954;51.980;5.850;2023-08-12T00:31:21;101425.63;;;22.99;81.71
51603;BME280;37954;51.980;5.850;2023-08-12T00:35:32;101440.06;;;23.05;81.74
51603;BME280;37954;51.980;5.850;2023-08-12T00:39:44;101432.66;;;23.05;81.68
51603;BME280;37954;51.980;5.850;2023-08-12T00:43:56;101420.94;;;23.00;81.73
51603;BME280;37954;51.980;5.850;2023-08-12T00:48:08;101422.88;;;22.99;82.11
51603;BME280;37954;51.980;5.850;2023-08-12T00:52:25;101418.22;;;23.00;81.76
51603;BME280;37954;51.980;5.850;2023-08-12T00:56:37;101404.28;;;22.96;81.97
51603;BME280;37954;51.980;5.850;2023-08-12T01:00:49;101406.97;;;23.01;81.92
51603;BME280;37954;51.980;5.850;2023-08-12T01:05:02;101411.34;;;23.02;81.89
51603;BME280;37954;51.980;5.850;2023-08-12T01:09:14;101400.38;;;23.02;82.25
51603;BME280;37954;51.980;5.850;2023-08-12T01:13:38;101397.09;;;23.00;82.21
51603;BME280;37954;51.980;5.850;2023-08-12T01:17:53;101398.78;;;22.96;82.25
51603;BME280;37954;51.980;5.850;2023-08-12T01:22:10;101382.44;;;22.86;82.42
51603;BME280;37954;51.980;5.850;2023-08-12T01:26:22;101391.72;;;22.90;82.67
51603;BME280;37954;51.980;5.850;2023-08-12T01:30:36;101373.47;;;22.80;82.66
51603;BME280;37954;51.980;5.850;2023-08-12T01:39:07;101369.75;;;22.66;82.88
51603;BME280;37954;51.980;5.850;2023-08-12T01:43:20;101362.97;;;22.58;83.03
51603;BME280;37954;51.980;5.850;2023-08-12T01:47:32;101337.63;;;22.43;83.44
51603;BME280;37954;51.980;5.850;2023-08-12T01:51:44;101348.78;;;22.51;83.44
51603;BME280;37954;51.980;5.850;2023-08-12T01:55:56;101341.72;;;22.45;83.07
51603;BME280;37954;51.980;5.850;2023-08-12T02:00:09;101346.03;;;22.51;83.45
51603;BME280;37954;51.980;5.850;2023-08-12T02:04:27;101337.59;;;22.48;83.62
51603;BME280;37954;51.980;5.850;2023-08-12T02:08:39;101319.41;;;22.33;84.28
51603;BME280;37954;51.980;5.850;2023-08-12T02:12:51;101335.19;;;22.41;84.54
51603;BME280;37954;51.980;5.850;2023-08-12T02:17:03;101313.72;;;22.25;84.53
51603;BME280;37954;51.980;5.850;2023-08-12T02:21:17;101334.94;;;22.38;84.88
51603;BME280;37954;51.980;5.850;2023-08-12T02:25:30;101330.84;;;22.35;84.55
51603;BME280;37954;51.980;5.850;2023-08-12T02:29:43;101333.59;;;22.35;84.75
51603;BME280;37954;51.980;5.850;2023-08-12T02:33:56;101336.31;;;22.35;85.06
51603;BME280;37954;51.980;5.850;2023-08-12T02:38:08;101311.78;;;22.25;85.57
51603;BME280;37954;51.980;5.850;2023-08-12T02:42:20;101324.56;;;22.35;85.66
51603;BME280;37954;51.980;5.850;2023-08-12T02:46:32;101333.25;;;22.42;85.88
51603;BME280;37954;51.980;5.850;2023-08-12T02:50:44;101322.59;;;22.40;85.80
51603;BME280;37954;51.980;5.850;2023-08-12T02:54:56;101314.50;;;22.30;86.15
51603;BME280;37954;51.980;5.850;2023-08-12T02:59:07;101320.50;;;22.32;86.42
51603;BME280;37954;51.980;5.850;2023-08-12T03:03:19;101301.91;;;22.29;86.79
51603;BME280;37954;51.980;5.850;2023-08-12T03:07:31;101289.13;;;22.19;86.83
51603;BME280;37954;51.980;5.850;2023-08-12T03:11:43;101292.91;;;22.23;86.79
51603;BME280;37954;51.980;5.850;2023-08-12T03:15:56;101298.69;;;22.22;87.38
51603;BME280;37954;51.980;5.850;2023-08-12T03:20:08;101287.72;;;22.22;87.23
51603;BME280;37954;51.980;5.850;2023-08-12T03:24:21;101281.19;;;22.18;87.31
51603;BME280;37954;51.980;5.850;2023-08-12T03:28:33;101291.00;;;22.24;87.84
51603;BME280;37954;51.980;5.850;2023-08-12T03:32:45;101271.94;;;22.14;87.73
51603;BME280;37954;51.980;5.850;2023-08-12T03:36:58;101258.81;;;22.11;87.71
51603;BME280;37954;51.980;5.850;2023-08-12T03:41:09;101271.34;;;22.17;88.06
51603;BME280;37954;51.980;5.850;2023-08-12T03:45:21;101258.81;;;22.11;88.30
51603;BME280;37954;51.980;5.850;2023-08-12T03:49:33;101258.47;;;22.17;88.37
51603;BME280;37954;51.980;5.850;2023-08-12T03:53:46;101239.97;;;22.09;88.53
51603;BME280;37954;51.980;5.850;2023-08-12T03:57:58;101246.28;;;22.05;88.40
51603;BME280;37954;51.980;5.850;2023-08-12T04:02:11;101254.22;;;22.06;88.52
51603;BME280;37954;51.980;5.850;2023-08-12T04:06:23;101245.19;;;22.06;88.82
51603;BME280;37954;51.980;5.850;2023-08-12T04:10:35;101248.41;;;22.13;88.91
51603;BME280;37954;51.980;5.850;2023-08-12T04:14:47;101239.13;;;22.09;89.04
51603;BME280;37954;51.980;5.850;2023-08-12T04:18:59;101232.03;;;22.08;88.78
51603;BME280;37954;51.980;5.850;2023-08-12T04:23:11;101220.56;;;22.06;88.65
51603;BME280;37954;51.980;5.850;2023-08-12T04:27:23;101219.50;;;22.02;88.73
51603;BME280;37954;51.980;5.850;2023-08-12T04:31:35;101224.16;;;22.01;88.98
51603;BME280;37954;51.980;5.850;2023-08-12T04:35:47;101215.38;;;21.99;89.18
51603;BME280;37954;51.980;5.850;2023-08-12T04:40:01;101208.25;;;22.03;89.40
51603;BME280;37954;51.980;5.850;2023-08-12T04:44:16;101202.53;;;22.00;89.88
51603;BME280;37954;51.980;5.850;2023-08-12T04:48:27;101207.47;;;21.98;89.68
51603;BME280;37954;51.980;5.850;2023-08-12T04:52:39;101206.09;;;22.00;90.32
51603;BME280;37954;51.980;5.850;2023-08-12T04:56:51;101201.41;;;22.06;90.33
51603;BME280;37954;51.980;5.850;2023-08-12T05:01:03;101181.63;;;22.14;90.25
51603;BME280;37954;51.980;5.850;2023-08-12T05:05:15;101181.56;;;22.19;90.42
51603;BME280;37954;51.980;5.850;2023-08-12T05:09:27;101199.81;;;22.29;90.38
51603;BME280;37954;51.980;5.850;2023-08-12T05:13:38;101209.38;;;22.31;90.22
51603;BME280;37954;51.980;5.850;2023-08-12T05:17:50;101183.72;;;22.22;90.25
51603;BME280;37954;51.980;5.850;2023-08-12T05:22:06;101185.09;;;22.19;90.17
51603;BME280;37954;51.980;5.850;2023-08-12T05:26:18;101168.00;;;22.09;90.41
51603;BME280;37954;51.980;5.850;2023-08-12T05:30:29;101160.16;;;21.97;90.52
51603;BME280;37954;51.980;5.850;2023-08-12T05:34:41;101166.13;;;21.99;90.23
51603;BME280;37954;51.980;5.850;2023-08-12T05:38:53;101157.78;;;21.85;90.13
51603;BME280;37954;51.980;5.850;2023-08-12T05:43:04;101192.31;;;21.81;90.70
51603;BME280;37954;51.980;5.850;2023-08-12T05:47:16;101173.53;;;21.70;91.01
51603;BME280;37954;51.980;5.850;2023-08-12T05:51:28;101178.25;;;21.64;91.84
51603;BME280;37954;51.980;5.850;2023-08-12T05:55:41;101158.06;;;21.55;92.53
51603;BME280;37954;51.980;5.850;2023-08-12T05:59:52;101156.16;;;21.56;92.77
51603;BME280;37954;51.980;5.850;2023-08-12T06:04:04;101159.19;;;21.49;92.70
51603;BME280;37954;51.980;5.850;2023-08-12T06:08:16;101154.91;;;21.43;92.81
51603;BME280;37954;51.980;5.850;2023-08-12T06:12:29;101157.66;;;21.38;92.97
51603;BME280;37954;51.980;5.850;2023-08-12T06:16:40;101152.22;;;21.33;93.41
51603;BME280;37954;51.980;5.850;2023-08-12T06:20:52;101152.28;;;21.28;93.39
51603;BME280;37954;51.980;5.850;2023-08-12T06:25:04;101149.28;;;21.24;93.83
51603;BME280;37954;51.980;5.850;2023-08-12T06:29:16;101161.56;;;21.27;93.92
51603;BME280;37954;51.980;5.850;2023-08-12T06:33:28;101159.94;;;21.26;93.91
51603;BME280;37954;51.980;5.850;2023-08-12T06:37:39;101158.88;;;21.22;94.63
51603;BME280;37954;51.980;5.850;2023-08-12T06:41:51;101173.88;;;21.24;95.09
51603;BME280;37954;51.980;5.850;2023-08-12T06:46:03;101151.22;;;21.13;94.78
51603;BME280;37954;51.980;5.850;2023-08-12T06:50:15;101142.75;;;21.15;94.58
51603;BME280;37954;51.980;5.850;2023-08-12T06:54:27;101131.06;;;21.09;94.61
51603;BME280;37954;51.980;5.850;2023-08-12T06:58:39;101124.72;;;21.14;94.49
51603;BME280;37954;51.980;5.850;2023-08-12T07:02:51;101123.06;;;21.18;94.41
51603;BME280;37954;51.980;5.850;2023-08-12T07:07:02;101126.06;;;21.16;94.37
51603;BME280;37954;51.980;5.850;2023-08-12T07:11:14;101123.06;;;21.23;94.03
51603;BME280;37954;51.980;5.850;2023-08-12T07:15:26;101122.78;;;21.25;94.26
51603;BME280;37954;51.980;5.850;2023-08-12T07:19:38;101123.78;;;21.34;94.39
51603;BME280;37954;51.980;5.850;2023-08-12T07:23:49;101113.09;;;21.37;94.24
51603;BME280;37954;51.980;5.850;2023-08-12T07:28:14;101125.06;;;21.46;94.16
51603;BME280;37954;51.980;5.850;2023-08-12T07:32:26;101107.34;;;21.39;93.94
51603;BME280;37954;51.980;5.850;2023-08-12T07:36:39;101096.75;;;21.32;93.98
51603;BME280;37954;51.980;5.850;2023-08-12T07:40:51;101089.41;;;21.28;94.25
51603;BME280;37954;51.980;5.850;2023-08-12T07:45:04;101088.88;;;21.26;93.97
51603;BME280;37954;51.980;5.850;2023-08-12T07:49:16;101097.34;;;21.29;94.56
51603;BME280;37954;51.980;5.850;2023-08-12T07:53:28;101089.72;;;21.26;94.68
51603;BME280;37954;51.980;5.850;2023-08-12T07:57:40;101088.88;;;21.26;94.64
51603;BME280;37954;51.980;5.850;2023-08-12T08:01:52;101082.91;;;21.18;94.39
51603;BME280;37954;51.980;5.850;2023-08-12T08:06:03;101081.81;;;21.19;94.90
51603;BME280;37954;51.980;5.850;2023-08-12T08:10:15;101076.38;;;21.19;95.46
51603;BME280;37954;51.980;5.850;2023-08-12T08:14:27;101075.25;;;21.21;95.42
51603;BME280;37954;51.980;5.850;2023-08-12T08:18:39;101068.41;;;21.23;95.84
51603;BME280;37954;51.980;5.850;2023-08-12T08:22:50;101073.84;;;21.28;95.80
51603;BME280;37954;51.980;5.850;2023-08-12T08:27:03;101063.13;;;21.32;95.52
51603;BME280;37954;51.980;5.850;2023-08-12T08:31:16;101047.50;;;21.37;96.05
51603;BME280;37954;51.980;5.850;2023-08-12T08:35:27;101062.66;;;21.53;96.46
51603;BME280;37954;51.980;5.850;2023-08-12T08:39:39;101060.22;;;21.52;96.40
51603;BME280;37954;51.980;5.850;2023-08-12T08:43:53;101067.50;;;21.62;96.33
51603;BME280;37954;51.980;5.850;2023-08-12T08:48:08;101063.06;;;21.66;96.68
51603;BME280;37954;51.980;5.850;2023-08-12T08:52:22;101075.88;;;21.70;97.37
51603;BME280;37954;51.980;5.850;2023-08-12T08:56:34;101077.84;;;21.65;97.39
51603;BME280;37954;51.980;5.850;2023-08-12T09:00:51;101072.38;;;21.65;97.46
51603;BME280;37954;51.980;5.850;2023-08-12T09:05:04;101088.22;;;21.68;97.25
51603;BME280;37954;51.980;5.850;2023-08-12T09:09:19;101099.06;;;21.78;97.64
51603;BME280;37954;51.980;5.850;2023-08-12T09:13:31;101097.31;;;21.87;98.48
51603;BME280;37954;51.980;5.850;2023-08-12T09:17:43;101104.91;;;21.95;98.30
51603;BME280;37954;51.980;5.850;2023-08-12T09:21:55;101111.41;;;21.99;97.83
51603;BME280;37954;51.980;5.850;2023-08-12T09:26:15;101113.16;;;21.90;98.13
51603;BME280;37954;51.980;5.850;2023-08-12T09:30:30;101120.03;;;22.16;97.83
51603;BME280;37954;51.980;5.850;2023-08-12T09:35:01;101114.75;;;22.44;97.35
51603;BME280;37954;51.980;5.850;2023-08-12T09:39:18;101122.81;;;22.78;96.76
51603;BME280;37954;51.980;5.850;2023-08-12T09:43:31;101126.06;;;23.17;95.49
51603;BME280;37954;51.980;5.850;2023-08-12T09:47:43;101121.97;;;23.52;93.25
51603;BME280;37954;51.980;5.850;2023-08-12T09:51:56;101122.16;;;24.02;91.67
51603;BME280;37954;51.980;5.850;2023-08-12T09:56:11;101114.94;;;24.20;88.99
51603;BME280;37954;51.980;5.850;2023-08-12T10:00:24;101122.38;;;24.19;87.08
51603;BME280;37954;51.980;5.850;2023-08-12T10:04:41;101144.94;;;24.03;85.69
51603;BME280;37954;51.980;5.850;2023-08-12T10:08:56;101134.97;;;24.20;86.26
51603;BME280;37954;51.980;5.850;2023-08-12T10:13:10;101115.16;;;24.87;86.53
51603;BME280;37954;51.980;5.850;2023-08-12T10:17:22;101114.56;;;25.26;84.23
51603;BME280;37954;51.980;5.850;2023-08-12T10:21:54;101117.16;;;25.09;80.62
51603;BME280;37954;51.980;5.850;2023-08-12T10:26:06;101144.31;;;24.74;78.96
51603;BME280;37954;51.980;5.850;2023-08-12T10:30:20;101165.72;;;24.36;79.31
51603;BME280;37954;51.980;5.850;2023-08-12T10:34:32;101158.69;;;23.70;79.95
51603;BME280;37954;51.980;5.850;2023-08-12T10:38:44;101172.97;;;23.35;81.20
51603;BME280;37954;51.980;5.850;2023-08-12T10:42:56;101182.59;;;23.13;81.63
51603;BME280;37954;51.980;5.850;2023-08-12T10:47:08;101154.66;;;22.92;82.25
51603;BME280;37954;51.980;5.850;2023-08-12T10:51:45;101155.53;;;23.44;82.74
51603;BME280;37954;51.980;5.850;2023-08-12T10:55:59;101161.50;;;24.66;82.56
51603;BME280;37954;51.980;5.850;2023-08-12T11:00:16;101165.41;;;25.82;77.58
51603;BME280;37954;51.980;5.850;2023-08-12T11:04:37;101169.53;;;26.63;70.55
51603;BME280;37954;51.980;5.850;2023-08-12T11:08:52;101168.31;;;27.21;66.10
51603;BME280;37954;51.980;5.850;2023-08-12T11:13:05;101157.44;;;27.68;63.68
51603;BME280;37954;51.980;5.850;2023-08-12T11:17:16;101173.91;;;27.94;61.01
51603;BME280;37954;51.980;5.850;2023-08-12T11:21:29;101174.34;;;28.13;60.36
51603;BME280;37954;51.980;5.850;2023-08-12T11:25:42;101171.78;;;28.46;58.39
51603;BME280;37954;51.980;5.850;2023-08-12T11:29:55;101183.53;;;28.93;56.66
51603;BME280;37954;51.980;5.850;2023-08-12T11:34:07;101166.34;;;28.88;55.10
51603;BME280;37954;51.980;5.850;2023-08-12T11:38:19;101172.94;;;28.95;54.43
51603;BME280;37954;51.980;5.850;2023-08-12T11:42:30;101183.16;;;29.03;53.47
51603;BME280;37954;51.980;5.850;2023-08-12T11:46:42;101183.75;;;29.30;53.48
51603;BME280;37954;51.980;5.850;2023-08-12T11:50:54;101188.47;;;29.29;52.29
51603;BME280;37954;51.980;5.850;2023-08-12T11:55:07;101180.09;;;28.96;51.52
51603;BME280;37954;51.980;5.850;2023-08-12T11:59:21;101189.47;;;28.54;51.00
51603;BME280;37954;51.980;5.850;2023-08-12T12:03:34;101179.44;;;28.02;51.53
51603;BME280;37954;51.980;5.850;2023-08-12T12:07:48;101157.44;;;27.68;51.81
51603;BME280;37954;51.980;5.850;2023-08-12T12:12:00;101151.91;;;27.68;52.37
51603;BME280;37954;51.980;5.850;2023-08-12T12:16:12;101180.25;;;27.94;52.13
51603;BME280;37954;51.980;5.850;2023-08-12T12:20:24;101183.06;;;27.86;51.51
51603;BME280;37954;51.980;5.850;2023-08-12T12:24:47;101182.59;;;27.58;51.61
51603;BME280;37954;51.980;5.850;2023-08-12T12:28:59;101162.47;;;27.23;51.51
51603;BME280;37954;51.980;5.850;2023-08-12T12:33:11;101191.03;;;27.53;53.32
51603;BME280;37954;51.980;5.850;2023-08-12T12:37:22;101177.56;;;27.68;53.15
51603;BME280;37954;51.980;5.850;2023-08-12T12:41:34;101191.13;;;27.91;52.01
51603;BME280;37954;51.980;5.850;2023-08-12T12:45:46;101191.63;;;28.01;50.94
51603;BME280;37954;51.980;5.850;2023-08-12T12:49:57;101193.25;;;28.02;50.98
51603;BME280;37954;51.980;5.850;2023-08-12T12:54:09;101174.13;;;27.80;50.97
51603;BME280;37954;51.980;5.850;2023-08-12T12:58:21;101198.16;;;27.71;51.84
51603;BME280;37954;51.980;5.850;2023-08-12T13:02:34;101184.34;;;27.54;51.55
51603;BME280;37954;51.980;5.850;2023-08-12T13:06:46;101168.81;;;27.32;50.88
51603;BME280;37954;51.980;5.850;2023-08-12T13:10:58;101195.09;;;27.47;50.77
51603;BME280;37954;51.980;5.850;2023-08-12T13:15:10;101192.66;;;27.45;50.63
51603;BME280;37954;51.980;5.850;2023-08-12T13:19:21;101202.25;;;27.65;49.77
51603;BME280;37954;51.980;5.850;2023-08-12T13:23:33;101190.19;;;27.78;49.48
51603;BME280;37954;51.980;5.850;2023-08-12T13:27:45;101165.34;;;27.78;49.71
51603;BME280;37954;51.980;5.850;2023-08-12T13:31:56;101193.03;;;28.07;49.27
51603;BME280;37954;51.980;5.850;2023-08-12T13:36:08;101192.91;;;28.04;50.04
51603;BME280;37954;51.980;5.850;2023-08-12T13:40:20;101211.94;;;27.97;49.33
51603;BME280;37954;51.980;5.850;2023-08-12T13:44:32;101186.13;;;27.84;49.53
51603;BME280;37954;51.980;5.850;2023-08-12T13:48:50;101203.81;;;28.00;48.76
51603;BME280;37954;51.980;5.850;2023-08-12T13:53:44;101206.09;;;27.90;46.85
51603;BME280;37954;51.980;5.850;2023-08-12T13:57:56;101206.31;;;27.67;46.58
51603;BME280;37954;51.980;5.850;2023-08-12T14:02:07;101200.28;;;27.22;45.70
51603;BME280;37954;51.980;5.850;2023-08-12T14:06:19;101204.34;;;27.08;47.04
51603;BME280;37954;51.980;5.850;2023-08-12T14:10:31;101214.38;;;27.03;48.17
51603;BME280;37954;51.980;5.850;2023-08-12T14:14:42;101223.16;;;26.97;48.28
51603;BME280;37954;51.980;5.850;2023-08-12T14:18:54;101220.00;;;26.90;48.34
51603;BME280;37954;51.980;5.850;2023-08-12T14:23:06;101223.41;;;26.78;47.57
51603;BME280;37954;51.980;5.850;2023-08-12T14:27:17;101225.28;;;26.60;47.29
51603;BME280;37954;51.980;5.850;2023-08-12T14:31:29;101227.03;;;26.48;47.19
51603;BME280;37954;51.980;5.850;2023-08-12T14:35:41;101214.34;;;26.38;47.57
51603;BME280;37954;51.980;5.850;2023-08-12T14:39:52;101208.16;;;26.32;46.81
51603;BME280;37954;51.980;5.850;2023-08-12T14:44:04;101216.28;;;26.15;46.67
51603;BME280;37954;51.980;5.850;2023-08-12T14:48:16;101218.59;;;26.13;47.07
51603;BME280;37954;51.980;5.850;2023-08-12T14:52:29;101216.47;;;26.19;46.59
51603;BME280;37954;51.980;5.850;2023-08-12T14:56:40;101232.97;;;26.10;46.04
51603;BME280;37954;51.980;5.850;2023-08-12T15:01:00;101218.47;;;25.96;46.56
51603;BME280;37954;51.980;5.850;2023-08-12T15:05:12;101221.25;;;25.96;46.85
51603;BME280;37954;51.980;5.850;2023-08-12T15:09:24;101220.56;;;25.90;46.87
51603;BME280;37954;51.980;5.850;2023-08-12T15:13:36;101226.75;;;25.96;47.78
51603;BME280;37954;51.980;5.850;2023-08-12T15:17:47;101224.84;;;25.83;47.37
51603;BME280;37954;51.980;5.850;2023-08-12T15:21:59;101221.75;;;25.76;47.07
51603;BME280;37954;51.980;5.850;2023-08-12T15:26:17;101219.22;;;25.65;47.24
51603;BME280;37954;51.980;5.850;2023-08-12T15:30:29;101232.56;;;25.72;48.14
51603;BME280;37954;51.980;5.850;2023-08-12T15:34:41;101231.44;;;25.73;47.86
51603;BME280;37954;51.980;5.850;2023-08-12T15:38:53;101227.38;;;25.71;46.94
51603;BME280;37954;51.980;5.850;2023-08-12T15:43:05;101230.66;;;25.59;46.90
51603;BME280;37954;51.980;5.850;2023-08-12T15:47:17;101241.38;;;25.47;47.43
51603;BME280;37954;51.980;5.850;2023-08-12T15:51:28;101239.31;;;25.30;47.53
51603;BME280;37954;51.980;5.850;2023-08-12T15:55:40;101225.38;;;25.13;48.34
51603;BME280;37954;51.980;5.850;2023-08-12T15:59:52;101229.41;;;25.07;48.58
51603;BME280;37954;51.980;5.850;2023-08-12T16:04:04;101225.13;;;24.87;48.74
51603;BME280;37954;51.980;5.850;2023-08-12T16:08:16;101230.09;;;24.85;49.62
51603;BME280;37954;51.980;5.850;2023-08-12T16:12:28;101207.00;;;24.72;49.81
51603;BME280;37954;51.980;5.850;2023-08-12T16:16:40;101225.00;;;24.92;50.59
51603;BME280;37954;51.980;5.850;2023-08-12T16:20:52;101240.91;;;25.09;50.71
51603;BME280;37954;51.980;5.850;2023-08-12T16:25:04;101236.22;;;24.95;50.91
51603;BME280;37954;51.980;5.850;2023-08-12T16:29:16;101217.88;;;24.77;50.93
51603;BME280;37954;51.980;5.850;2023-08-12T16:33:28;101217.91;;;24.50;51.62
51603;BME280;37954;51.980;5.850;2023-08-12T16:37:40;101229.78;;;24.45;52.45
51603;BME280;37954;51.980;5.850;2023-08-12T16:41:51;101223.78;;;24.29;52.72
51603;BME280;37954;51.980;5.850;2023-08-12T16:46:03;101235.03;;;24.14;53.63
51603;BME280;37954;51.980;5.850;2023-08-12T16:50:17;101244.66;;;24.12;54.28
51603;BME280;37954;51.980;5.850;2023-08-12T16:54:29;101237.84;;;24.09;54.93
51603;BME280;37954;51.980;5.850;2023-08-12T16:58:41;101250.91;;;24.17;54.95
51603;BME280;37954;51.980;5.850;2023-08-12T17:02:52;101241.09;;;24.11;54.75
51603;BME280;37954;51.980;5.850;2023-08-12T17:07:04;101240.03;;;24.26;55.13
51603;BME280;37954;51.980;5.850;2023-08-12T17:11:17;101238.84;;;24.32;55.08
51603;BME280;37954;51.980;5.850;2023-08-12T17:15:28;101232.31;;;24.28;52.15
51603;BME280;37954;51.980;5.850;2023-08-12T17:19:41;101232.50;;;24.18;50.71
51603;BME280;37954;51.980;5.850;2023-08-12T17:23:53;101228.47;;;23.97;49.50
51603;BME280;37954;51.980;5.850;2023-08-12T17:28:05;101227.19;;;23.75;48.91
51603;BME280;37954;51.980;5.850;2023-08-12T17:32:17;101225.38;;;23.52;48.59
51603;BME280;37954;51.980;5.850;2023-08-12T17:36:29;101230.75;;;23.38;48.76
51603;BME280;37954;51.980;5.850;2023-08-12T17:40:40;101209.25;;;23.08;48.97
51603;BME280;37954;51.980;5.850;2023-08-12T17:44:52;101229.25;;;23.08;49.21
51603;BME280;37954;51.980;5.850;2023-08-12T17:49:04;101250.00;;;23.14;49.79
51603;BME280;37954;51.980;5.850;2023-08-12T17:53:16;101233.19;;;23.02;50.40
51603;BME280;37954;51.980;5.850;2023-08-12T17:57:28;101243.16;;;22.93;50.80
51603;BME280;37954;51.980;5.850;2023-08-12T18:01:40;101245.22;;;22.82;50.78
51603;BME280;37954;51.980;5.850;2023-08-12T18:05:51;101252.63;;;22.82;51.04
51603;BME280;37954;51.980;5.850;2023-08-12T18:10:03;101261.44;;;22.79;51.63
51603;BME280;37954;51.980;5.850;2023-08-12T18:14:16;101263.75;;;22.67;51.88
51603;BME280;37954;51.980;5.850;2023-08-12T18:18:28;101262.72;;;22.57;52.17
51603;BME280;37954;51.980;5.850;2023-08-12T18:22:40;101269.34;;;22.51;52.25
51603;BME280;37954;51.980;5.850;2023-08-12T18:26:52;101264.03;;;22.36;52.84
51603;BME280;37954;51.980;5.850;2023-08-12T18:31:04;101253.25;;;22.21;53.33
51603;BME280;37954;51.980;5.850;2023-08-12T18:35:15;101277.34;;;22.19;54.15
51603;BME280;37954;51.980;5.850;2023-08-12T18:39:42;101261.63;;;22.01;55.09
51603;BME280;37954;51.980;5.850;2023-08-12T18:43:55;101291.97;;;21.99;55.75
51603;BME280;37954;51.980;5.850;2023-08-12T18:48:06;101280.06;;;21.85;56.29
51603;BME280;37954;51.980;5.850;2023-08-12T18:52:18;101286.97;;;21.77;56.71
51603;BME280;37954;51.980;5.850;2023-08-12T18:56:30;101299.59;;;21.68;57.19
51603;BME280;37954;51.980;5.850;2023-08-12T19:00:42;101305.41;;;21.62;57.90
51603;BME280;37954;51.980;5.850;2023-08-12T19:04:54;101304.91;;;21.49;58.52
51603;BME280;37954;51.980;5.850;2023-08-12T19:09:06;101299.25;;;21.41;59.27
51603;BME280;37954;51.980;5.850;2023-08-12T19:13:17;101297.94;;;21.28;59.96
51603;BME280;37954;51.980;5.850;2023-08-12T19:17:29;101300.44;;;21.19;60.67
51603;BME280;37954;51.980;5.850;2023-08-12T19:21:41;101309.75;;;21.08;61.09
51603;BME280;37954;51.980;5.850;2023-08-12T19:25:53;101325.06;;;21.04;61.76
51603;BME280;37954;51.980;5.850;2023-08-12T19:30:05;101324.00;;;20.95;62.54
51603;BME280;37954;51.980;5.850;2023-08-12T19:34:21;101324.81;;;20.96;63.08
51603;BME280;37954;51.980;5.850;2023-08-12T19:38:33;101333.53;;;20.98;63.70
51603;BME280;37954;51.980;5.850;2023-08-12T19:42:45;101333.53;;;21.03;64.06
51603;BME280;37954;51.980;5.850;2023-08-12T19:46:56;101331.88;;;21.07;64.07
51603;BME280;37954;51.980;5.850;2023-08-12T19:51:08;101336.81;;;21.10;64.21
51603;BME280;37954;51.980;5.850;2023-08-12T19:55:20;101347.94;;;21.18;64.66
51603;BME280;37954;51.980;5.850;2023-08-12T19:59:32;101331.34;;;21.05;64.81
51603;BME280;37954;51.980;5.850;2023-08-12T20:03:44;101348.06;;;20.93;65.77
51603;BME280;37954;51.980;5.850;2023-08-12T20:07:56;101354.06;;;20.85;65.91
51603;BME280;37954;51.980;5.850;2023-08-12T20:12:08;101346.47;;;20.72;66.29
51603;BME280;37954;51.980;5.850;2023-08-12T20:16:19;101351.41;;;20.60;66.68
51603;BME280;37954;51.980;5.850;2023-08-12T20:20:32;101336.38;;;20.52;66.74
51603;BME280;37954;51.980;5.850;2023-08-12T20:24:44;101345.94;;;20.44;67.13
51603;BME280;37954;51.980;5.850;2023-08-12T20:28:56;101342.69;;;20.37;67.16
51603;BME280;37954;51.980;5.850;2023-08-12T20:33:08;101346.19;;;20.33;67.16
51603;BME280;37954;51.980;5.850;2023-08-12T20:37:21;101342.63;;;20.27;67.30
51603;BME280;37954;51.980;5.850;2023-08-12T20:41:32;101338.84;;;20.23;67.50
51603;BME280;37954;51.980;5.850;2023-08-12T20:45:44;101336.38;;;20.22;68.04
51603;BME280;37954;51.980;5.850;2023-08-12T20:49:56;101332.25;;;20.09;68.06
51603;BME280;37954;51.980;5.850;2023-08-12T20:54:08;101333.09;;;19.99;68.82
51603;BME280;37954;51.980;5.850;2023-08-12T20:58:20;101335.25;;;19.92;69.41
51603;BME280;37954;51.980;5.850;2023-08-12T21:02:32;101333.59;;;19.81;69.87
51603;BME280;37954;51.980;5.850;2023-08-12T21:06:44;101340.13;;;19.70;70.51
51603;BME280;37954;51.980;5.850;2023-08-12T21:10:56;101335.72;;;19.59;70.89
51603;BME280;37954;51.980;5.850;2023-08-12T21:15:08;101337.63;;;19.53;71.45
51603;BME280;37954;51.980;5.850;2023-08-12T21:19:20;101338.94;;;19.45;71.81
51603;BME280;37954;51.980;5.850;2023-08-12T21:23:31;101336.72;;;19.32;72.18
51603;BME280;37954;51.980;5.850;2023-08-12T21:27:43;101339.13;;;19.24;72.75
51603;BME280;37954;51.980;5.850;2023-08-12T21:31:55;101348.09;;;19.19;73.21
51603;BME280;37954;51.980;5.850;2023-08-12T21:36:06;101342.59;;;19.09;73.54
51603;BME280;37954;51.980;5.850;2023-08-12T21:40:18;101337.13;;;18.99;73.84
51603;BME280;37954;51.980;5.850;2023-08-12T21:44:30;101347.97;;;18.94;74.18
51603;BME280;37954;51.980;5.850;2023-08-12T21:48:42;101344.38;;;18.83;74.64
51603;BME280;37954;51.980;5.850;2023-08-12T21:52:54;101340.50;;;18.74;74.96
51603;BME280;37954;51.980;5.850;2023-08-12T21:57:05;101360.41;;;18.80;75.16
51603;BME280;37954;51.980;5.850;2023-08-12T22:01:17;101357.63;;;18.69;75.49
51603;BME280;37954;51.980;5.850;2023-08-12T22:05:30;101349.44;;;18.64;75.63